sensor_id;sensor_type;location;lat;lon;timestamp;pressure;altitude;pressure_sealevel;temperature;humidity
24858;BME280;12935;50.782;6.074;2022-08-30T00:00:16;99831.50;;;18.76;59.37
24858;BME280;12935;50.782;6.074;2022-08-30T00:03:01;99836.84;;;18.70;60.08
24858;BME280;12935;50.782;6.074;2022-08-30T00:05:28;99833.41;;;18.79;59.47
24858;BME280;12935;50.782;6.074;2022-08-30T00:07:54;99832.06;;;18.71;60.22
24858;BME280;12935;50.782;6.074;2022-08-30T00:10:20;99832.63;;;18.91;59.17
24858;BME280;12935;50.782;6.074;2022-08-30T00:12:46;99838.63;;;19.02;58.81
24858;BME280;12935;50.782;6.074;2022-08-30T00:15:13;99834.84;;;19.09;58.40
24858;BME280;12935;50.782;6.074;2022-08-30T00:17:40;99834.41;;;19.10;57.92
24858;BME280;12935;50.782;6.074;2022-08-30T00:20:09;99839.50;;;19.12;57.44
24858;BME280;12935;50.782;6.074;2022-08-30T00:22:35;99837.19;;;19.10;57.63
24858;BME280;12935;50.782;6.074;2022-08-30T00:25:00;99829.41;;;19.05;57.37
24858;BME280;12935;50.782;6.074;2022-08-30T00:27:27;99837.63;;;19.09;57.51
24858;BME280;12935;50.782;6.074;2022-08-30T00:29:53;99834.94;;;19.05;57.51
24858;BME280;12935;50.782;6.074;2022-08-30T00:32:18;99823.34;;;18.98;58.03
24858;BME280;12935;50.782;6.074;2022-08-30T00:34:46;99831.41;;;18.92;57.59
24858;BME280;12935;50.782;6.074;2022-08-30T00:37:13;99822.66;;;18.81;58.22
24858;BME280;12935;50.782;6.074;2022-08-30T00:39:38;99834.84;;;18.83;58.07
24858;BME280;12935;50.782;6.074;2022-08-30T00:42:04;99841.25;;;18.80;58.16
24858;BME280;12935;50.782;6.074;2022-08-30T00:44:29;99835.81;;;18.77;58.93
24858;BME280;12935;50.782;6.074;2022-08-30T00:46:54;99841.69;;;18.79;58.82
24858;BME280;12935;50.782;6.074;2022-08-30T00:49:20;99833.84;;;18.77;59.12
24858;BME280;12935;50.782;6.074;2022-08-30T00:51:46;99831.06;;;18.77;59.32
24858;BME280;12935;50.782;6.074;2022-08-30T00:54:12;99832.50;;;18.69;59.54
24858;BME280;12935;50.782;6.074;2022-08-30T00:56:38;99837.28;;;18.69;59.52
24858;BME280;12935;50.782;6.074;2022-08-30T00:59:05;99825.19;;;18.63;60.07
24858;BME280;12935;50.782;6.074;2022-08-30T01:01:31;99829.22;;;18.58;60.34
24858;BME280;12935;50.782;6.074;2022-08-30T01:03:57;99830.47;;;18.57;60.83
24858;BME280;12935;50.782;6.074;2022-08-30T01:06:23;99823.66;;;18.45;60.87
24858;BME280;12935;50.782;6.074;2022-08-30T01:08:50;99825.81;;;18.54;61.59
24858;BME280;12935;50.782;6.074;2022-08-30T01:11:18;99821.25;;;18.47;61.75
24858;BME280;12935;50.782;6.074;2022-08-30T01:13:44;99839.41;;;18.48;61.73
24858;BME280;12935;50.782;6.074;2022-08-30T01:16:11;99818.53;;;18.31;62.29
24858;BME280;12935;50.782;6.074;2022-08-30T01:18:37;99831.06;;;18.36;62.86
24858;BME280;12935;50.782;6.074;2022-08-30T01:23:29;99837.03;;;18.34;63.32
24858;BME280;12935;50.782;6.074;2022-08-30T01:25:56;99834.81;;;18.29;63.39
24858;BME280;12935;50.782;6.074;2022-08-30T01:28:23;99833.38;;;18.25;63.73
24858;BME280;12935;50.782;6.074;2022-08-30T01:30:49;99833.69;;;18.27;64.35
24858;BME280;12935;50.782;6.074;2022-08-30T01:33:15;99845.72;;;18.20;63.86
24858;BME280;12935;50.782;6.074;2022-08-30T01:35:50;99837.75;;;18.09;64.50
24858;BME280;12935;50.782;6.074;2022-08-30T01:38:19;99839.38;;;18.07;64.60
24858;BME280;12935;50.782;6.074;2022-08-30T01:40:46;99836.69;;;18.03;64.68
24858;BME280;12935;50.782;6.074;2022-08-30T01:43:13;99839.81;;;18.05;64.91
24858;BME280;12935;50.782;6.074;2022-08-30T01:45:38;99827.19;;;18.04;64.97
24858;BME280;12935;50.782;6.074;2022-08-30T01:48:04;99838.16;;;18.08;64.54
24858;BME280;12935;50.782;6.074;2022-08-30T01:50:29;99836.69;;;18.03;64.81
24858;BME280;12935;50.782;6.074;2022-08-30T01:52:54;99829.63;;;18.02;64.89
24858;BME280;12935;50.782;6.074;2022-08-30T01:55:19;99841.03;;;18.04;64.91
24858;BME280;12935;50.782;6.074;2022-08-30T01:57:45;99838.78;;;17.99;64.61
24858;BME280;12935;50.782;6.074;2022-08-30T02:00:11;99835.59;;;18.01;65.17
24858;BME280;12935;50.782;6.074;2022-08-30T02:02:37;99820.63;;;17.98;65.38
24858;BME280;12935;50.782;6.074;2022-08-30T02:05:03;99828.50;;;18.00;65.49
24858;BME280;12935;50.782;6.074;2022-08-30T02:07:28;99832.69;;;17.92;65.90
24858;BME280;12935;50.782;6.074;2022-08-30T02:09:53;99834.41;;;17.85;66.13
24858;BME280;12935;50.782;6.074;2022-08-30T02:12:19;99837.25;;;17.82;66.71
24858;BME280;12935;50.782;6.074;2022-08-30T02:14:45;99843.22;;;17.80;67.18
24858;BME280;12935;50.782;6.074;2022-08-30T02:17:11;99830.03;;;17.72;67.11
24858;BME280;12935;50.782;6.074;2022-08-30T02:19:37;99830.44;;;17.70;67.51
24858;BME280;12935;50.782;6.074;2022-08-30T02:22:03;99830.19;;;17.65;68.38
24858;BME280;12935;50.782;6.074;2022-08-30T02:24:29;99819.81;;;17.52;69.11
24858;BME280;12935;50.782;6.074;2022-08-30T02:26:54;99820.84;;;17.59;69.80
24858;BME280;12935;50.782;6.074;2022-08-30T02:29:21;99817.13;;;17.49;70.03
24858;BME280;12935;50.782;6.074;2022-08-30T02:31:47;99822.78;;;17.45;70.16
24858;BME280;12935;50.782;6.074;2022-08-30T02:34:13;99818.44;;;17.44;71.19
24858;BME280;12935;50.782;6.074;2022-08-30T02:36:38;99825.19;;;17.43;71.74
24858;BME280;12935;50.782;6.074;2022-08-30T02:39:05;99819.03;;;17.36;72.10
24858;BME280;12935;50.782;6.074;2022-08-30T02:41:30;99813.72;;;17.29;72.23
24858;BME280;12935;50.782;6.074;2022-08-30T02:43:55;99805.50;;;17.25;73.47
24858;BME280;12935;50.782;6.074;2022-08-30T02:46:23;99800.31;;;17.11;74.38
24858;BME280;12935;50.782;6.074;2022-08-30T02:48:49;99798.34;;;17.11;75.30
24858;BME280;12935;50.782;6.074;2022-08-30T02:51:14;99791.34;;;17.07;75.46
24858;BME280;12935;50.782;6.074;2022-08-30T02:53:41;99802.72;;;17.09;76.20
24858;BME280;12935;50.782;6.074;2022-08-30T02:56:08;99801.53;;;17.10;76.12
24858;BME280;12935;50.782;6.074;2022-08-30T02:58:34;99793.03;;;17.01;77.09
24858;BME280;12935;50.782;6.074;2022-08-30T03:00:59;99791.31;;;16.91;77.23
24858;BME280;12935;50.782;6.074;2022-08-30T03:03:25;99794.78;;;16.95;77.54
24858;BME280;12935;50.782;6.074;2022-08-30T03:05:51;99797.03;;;17.00;77.32
24858;BME280;12935;50.782;6.074;2022-08-30T03:08:16;99800.81;;;17.06;77.57
24858;BME280;12935;50.782;6.074;2022-08-30T03:10:41;99791.00;;;17.05;77.63
24858;BME280;12935;50.782;6.074;2022-08-30T03:13:07;99802.47;;;17.03;77.44
24858;BME280;12935;50.782;6.074;2022-08-30T03:15:34;99805.75;;;16.98;78.43
24858;BME280;12935;50.782;6.074;2022-08-30T03:18:00;99801.41;;;16.81;80.48
24858;BME280;12935;50.782;6.074;2022-08-30T03:20:26;99802.97;;;16.82;79.40
24858;BME280;12935;50.782;6.074;2022-08-30T03:22:52;99798.91;;;16.87;79.63
24858;BME280;12935;50.782;6.074;2022-08-30T03:25:18;99800.72;;;16.93;79.45
24858;BME280;12935;50.782;6.074;2022-08-30T03:27:45;99796.06;;;16.90;79.18
24858;BME280;12935;50.782;6.074;2022-08-30T03:30:10;99796.06;;;16.90;79.62
24858;BME280;12935;50.782;6.074;2022-08-30T03:32:36;99792.88;;;16.92;79.13
24858;BME280;12935;50.782;6.074;2022-08-30T03:35:02;99796.25;;;16.99;79.11
24858;BME280;12935;50.782;6.074;2022-08-30T03:37:27;99793.56;;;16.96;79.00
24858;BME280;12935;50.782;6.074;2022-08-30T03:39:54;99787.28;;;16.95;79.27
24858;BME280;12935;50.782;6.074;2022-08-30T03:42:20;99786.94;;;16.93;79.06
24858;BME280;12935;50.782;6.074;2022-08-30T03:44:46;99803.31;;;17.00;78.86
24858;BME280;12935;50.782;6.074;2022-08-30T03:47:11;99788.47;;;16.94;79.02
24858;BME280;12935;50.782;6.074;2022-08-30T03:49:36;99790.31;;;16.65;84.92
24858;BME280;12935;50.782;6.074;2022-08-30T03:52:02;99790.50;;;16.54;84.94
24858;BME280;12935;50.782;6.074;2022-08-30T03:54:28;99800.84;;;16.70;83.20
24858;BME280;12935;50.782;6.074;2022-08-30T03:56:53;99801.84;;;16.79;82.48
24858;BME280;12935;50.782;6.074;2022-08-30T03:59:18;99791.56;;;16.80;81.98
24858;BME280;12935;50.782;6.074;2022-08-30T04:01:44;99800.44;;;16.88;81.87
24858;BME280;12935;50.782;6.074;2022-08-30T04:04:13;99794.25;;;16.83;81.73
24858;BME280;12935;50.782;6.074;2022-08-30T04:06:39;99803.50;;;16.93;81.23
24858;BME280;12935;50.782;6.074;2022-08-30T04:09:04;99797.03;;;16.83;81.08
24858;BME280;12935;50.782;6.074;2022-08-30T04:11:30;99800.81;;;16.90;80.79
24858;BME280;12935;50.782;6.074;2022-08-30T04:13:55;99792.59;;;16.86;80.97
24858;BME280;12935;50.782;6.074;2022-08-30T04:16:21;99789.69;;;16.93;80.64
24858;BME280;12935;50.782;6.074;2022-08-30T04:18:47;99800.56;;;17.00;80.76
24858;BME280;12935;50.782;6.074;2022-08-30T04:21:12;99799.81;;;17.00;80.39
24858;BME280;12935;50.782;6.074;2022-08-30T04:23:38;99802.63;;;16.96;80.52
24858;BME280;12935;50.782;6.074;2022-08-30T04:26:03;99798.31;;;16.95;80.60
24858;BME280;12935;50.782;6.074;2022-08-30T04:28:28;99806.41;;;17.02;80.60
24858;BME280;12935;50.782;6.074;2022-08-30T04:30:53;99800.22;;;16.98;79.76
24858;BME280;12935;50.782;6.074;2022-08-30T04:33:19;99801.84;;;16.96;80.29
24858;BME280;12935;50.782;6.074;2022-08-30T04:35:47;99811.28;;;16.98;80.18
24858;BME280;12935;50.782;6.074;2022-08-30T04:38:14;99811.59;;;17.00;80.35
24858;BME280;12935;50.782;6.074;2022-08-30T04:40:41;99811.59;;;17.00;80.14
24858;BME280;12935;50.782;6.074;2022-08-30T04:43:07;99814.34;;;17.00;79.97
24858;BME280;12935;50.782;6.074;2022-08-30T04:45:33;99806.19;;;16.97;80.27
24858;BME280;12935;50.782;6.074;2022-08-30T04:47:59;99816.69;;;17.02;80.27
24858;BME280;12935;50.782;6.074;2022-08-30T04:50:24;99817.28;;;16.93;80.51
24858;BME280;12935;50.782;6.074;2022-08-30T04:52:50;99810.63;;;16.91;80.27
24858;BME280;12935;50.782;6.074;2022-08-30T04:55:16;99816.88;;;16.95;80.31
24858;BME280;12935;50.782;6.074;2022-08-30T04:57:41;99823.41;;;17.01;80.28
24858;BME280;12935;50.782;6.074;2022-08-30T05:00:10;99820.16;;;17.06;80.07
24858;BME280;12935;50.782;6.074;2022-08-30T05:02:36;99830.34;;;17.09;79.92
24858;BME280;12935;50.782;6.074;2022-08-30T05:05:02;99820.00;;;17.13;79.77
24858;BME280;12935;50.782;6.074;2022-08-30T05:07:46;99818.38;;;17.15;79.43
24858;BME280;12935;50.782;6.074;2022-08-30T05:10:12;99826.53;;;17.19;78.77
24858;BME280;12935;50.782;6.074;2022-08-30T05:12:38;99828.03;;;17.24;78.54
24858;BME280;12935;50.782;6.074;2022-08-30T05:15:04;99842.19;;;17.26;78.57
24858;BME280;12935;50.782;6.074;2022-08-30T05:17:29;99833.53;;;17.24;77.89
24858;BME280;12935;50.782;6.074;2022-08-30T05:19:54;99828.97;;;17.17;77.35
24858;BME280;12935;50.782;6.074;2022-08-30T05:22:20;99835.69;;;17.16;77.56
24858;BME280;12935;50.782;6.074;2022-08-30T05:24:45;99834.59;;;17.13;77.35
24858;BME280;12935;50.782;6.074;2022-08-30T05:27:10;99838.28;;;17.23;77.54
24858;BME280;12935;50.782;6.074;2022-08-30T05:29:35;99832.00;;;17.23;77.52
24858;BME280;12935;50.782;6.074;2022-08-30T05:32:01;99836.47;;;17.33;77.64
24858;BME280;12935;50.782;6.074;2022-08-30T05:34:28;99842.28;;;17.38;77.13
24858;BME280;12935;50.782;6.074;2022-08-30T05:36:54;99839.00;;;17.43;76.90
24858;BME280;12935;50.782;6.074;2022-08-30T05:39:19;99838.03;;;17.50;76.37
24858;BME280;12935;50.782;6.074;2022-08-30T05:41:45;99827.41;;;17.48;76.33
24858;BME280;12935;50.782;6.074;2022-08-30T05:44:10;99832.16;;;17.48;76.06
24858;BME280;12935;50.782;6.074;2022-08-30T05:46:36;99832.63;;;17.46;75.65
24858;BME280;12935;50.782;6.074;2022-08-30T05:49:03;99840.78;;;17.50;75.52
24858;BME280;12935;50.782;6.074;2022-08-30T05:51:32;99839.16;;;17.52;76.11
24858;BME280;12935;50.782;6.074;2022-08-30T05:53:58;99833.56;;;17.56;75.82
24858;BME280;12935;50.782;6.074;2022-08-30T05:56:30;99829.22;;;17.55;75.15
24858;BME280;12935;50.782;6.074;2022-08-30T05:58:55;99833.66;;;17.69;74.78
24858;BME280;12935;50.782;6.074;2022-08-30T06:01:36;99838.41;;;17.68;74.39
24858;BME280;12935;50.782;6.074;2022-08-30T06:04:04;99834.00;;;17.71;74.10
24858;BME280;12935;50.782;6.074;2022-08-30T06:06:31;99842.56;;;17.76;74.18
24858;BME280;12935;50.782;6.074;2022-08-30T06:08:57;99841.00;;;17.75;74.09
24858;BME280;12935;50.782;6.074;2022-08-30T06:11:24;99844.25;;;17.86;74.65
24858;BME280;12935;50.782;6.074;2022-08-30T06:13:51;99852.25;;;17.97;74.20
24858;BME280;12935;50.782;6.074;2022-08-30T06:16:19;99833.84;;;18.07;73.11
24858;BME280;12935;50.782;6.074;2022-08-30T06:18:45;99851.94;;;18.24;72.61
24858;BME280;12935;50.782;6.074;2022-08-30T06:21:19;99849.66;;;18.35;72.25
24858;BME280;12935;50.782;6.074;2022-08-30T06:23:44;99849.16;;;18.53;71.51
24858;BME280;12935;50.782;6.074;2022-08-30T06:26:10;99846.78;;;18.68;70.71
24858;BME280;12935;50.782;6.074;2022-08-30T06:28:35;99843.94;;;18.84;69.95
24858;BME280;12935;50.782;6.074;2022-08-30T06:31:05;99841.59;;;18.95;68.94
24858;BME280;12935;50.782;6.074;2022-08-30T06:33:30;99850.78;;;19.05;68.63
24858;BME280;12935;50.782;6.074;2022-08-30T06:36:04;99849.72;;;19.15;67.48
24858;BME280;12935;50.782;6.074;2022-08-30T06:38:30;99845.91;;;19.21;66.73
24858;BME280;12935;50.782;6.074;2022-08-30T06:40:55;99836.72;;;19.24;66.73
24858;BME280;12935;50.782;6.074;2022-08-30T06:43:20;99836.41;;;19.35;66.40
24858;BME280;12935;50.782;6.074;2022-08-30T06:45:46;99848.69;;;19.47;65.67
24858;BME280;12935;50.782;6.074;2022-08-30T06:48:11;99843.84;;;19.51;65.27
24858;BME280;12935;50.782;6.074;2022-08-30T06:50:36;99852.47;;;19.66;64.81
24858;BME280;12935;50.782;6.074;2022-08-30T06:53:02;99847.34;;;19.77;64.87
24858;BME280;12935;50.782;6.074;2022-08-30T06:55:30;99848.63;;;19.85;64.25
24858;BME280;12935;50.782;6.074;2022-08-30T06:57:59;99852.94;;;19.99;63.59
24858;BME280;12935;50.782;6.074;2022-08-30T07:00:25;99845.06;;;19.97;63.72
24858;BME280;12935;50.782;6.074;2022-08-30T07:02:50;99836.16;;;20.02;62.98
24858;BME280;12935;50.782;6.074;2022-08-30T07:05:15;99844.75;;;20.17;62.62
24858;BME280;12935;50.782;6.074;2022-08-30T07:07:42;99838.94;;;20.24;62.39
24858;BME280;12935;50.782;6.074;2022-08-30T07:10:08;99845.13;;;20.41;61.96
24858;BME280;12935;50.782;6.074;2022-08-30T07:12:34;99840.25;;;20.54;61.38
24858;BME280;12935;50.782;6.074;2022-08-30T07:15:02;99839.06;;;20.64;60.96
24858;BME280;12935;50.782;6.074;2022-08-30T07:17:28;99845.72;;;20.66;61.54
24858;BME280;12935;50.782;6.074;2022-08-30T07:20:12;99845.84;;;20.63;62.21
24858;BME280;12935;50.782;6.074;2022-08-30T07:22:38;99848.38;;;20.70;61.61
24858;BME280;12935;50.782;6.074;2022-08-30T07:25:03;99854.31;;;20.81;60.75
24858;BME280;12935;50.782;6.074;2022-08-30T07:27:30;99853.28;;;20.88;60.26
24858;BME280;12935;50.782;6.074;2022-08-30T07:29:55;99855.91;;;20.91;60.32
24858;BME280;12935;50.782;6.074;2022-08-30T07:32:22;99857.72;;;20.85;59.99
24858;BME280;12935;50.782;6.074;2022-08-30T07:34:48;99844.09;;;20.78;60.29
24858;BME280;12935;50.782;6.074;2022-08-30T07:37:13;99849.75;;;20.96;60.15
24858;BME280;12935;50.782;6.074;2022-08-30T07:39:38;99844.69;;;21.04;59.86
24858;BME280;12935;50.782;6.074;2022-08-30T07:42:04;99839.94;;;21.14;59.30
24858;BME280;12935;50.782;6.074;2022-08-30T07:44:29;99851.19;;;21.10;59.52
24858;BME280;12935;50.782;6.074;2022-08-30T07:46:56;99841.94;;;21.04;59.16
24858;BME280;12935;50.782;6.074;2022-08-30T07:49:21;99855.31;;;21.27;59.00
24858;BME280;12935;50.782;6.074;2022-08-30T07:51:47;99858.09;;;21.27;59.05
24858;BME280;12935;50.782;6.074;2022-08-30T07:54:12;99852.69;;;21.24;58.85
24858;BME280;12935;50.782;6.074;2022-08-30T07:56:38;99861.81;;;21.24;59.22
24858;BME280;12935;50.782;6.074;2022-08-30T07:59:03;99864.59;;;21.24;59.22
24858;BME280;12935;50.782;6.074;2022-08-30T08:01:29;99857.03;;;21.34;59.06
24858;BME280;12935;50.782;6.074;2022-08-30T08:03:54;99862.31;;;21.41;58.53
24858;BME280;12935;50.782;6.074;2022-08-30T08:06:21;99864.47;;;21.37;58.57
24858;BME280;12935;50.782;6.074;2022-08-30T08:08:48;99864.97;;;21.54;58.07
24858;BME280;12935;50.782;6.074;2022-08-30T08:11:16;99858.84;;;21.68;57.37
24858;BME280;12935;50.782;6.074;2022-08-30T08:13:43;99869.38;;;21.82;56.88
24858;BME280;12935;50.782;6.074;2022-08-30T08:16:09;99856.84;;;21.87;56.45
24858;BME280;12935;50.782;6.074;2022-08-30T08:18:34;99867.72;;;22.03;55.73
24858;BME280;12935;50.782;6.074;2022-08-30T08:21:00;99875.91;;;22.16;55.33
24858;BME280;12935;50.782;6.074;2022-08-30T08:23:26;99869.41;;;22.28;54.90
24858;BME280;12935;50.782;6.074;2022-08-30T08:25:51;99863.38;;;22.29;54.40
24858;BME280;12935;50.782;6.074;2022-08-30T08:28:17;99862.91;;;22.40;54.70
24858;BME280;12935;50.782;6.074;2022-08-30T08:30:43;99867.72;;;22.49;54.09
24858;BME280;12935;50.782;6.074;2022-08-30T08:33:09;99868.91;;;22.66;53.60
24858;BME280;12935;50.782;6.074;2022-08-30T08:35:37;99868.28;;;22.71;53.26
24858;BME280;12935;50.782;6.074;2022-08-30T08:38:02;99863.94;;;22.70;53.26
24858;BME280;12935;50.782;6.074;2022-08-30T08:40:54;99870.75;;;22.69;53.36
24858;BME280;12935;50.782;6.074;2022-08-30T08:43:19;99871.56;;;22.79;53.22
24858;BME280;12935;50.782;6.074;2022-08-30T08:46:15;99866.56;;;22.83;53.09
24858;BME280;12935;50.782;6.074;2022-08-30T08:48:49;99868.25;;;22.89;53.15
24858;BME280;12935;50.782;6.074;2022-08-30T08:51:18;99869.66;;;22.94;53.14
24858;BME280;12935;50.782;6.074;2022-08-30T08:54:19;99875.78;;;23.07;52.64
24858;BME280;12935;50.782;6.074;2022-08-30T08:56:46;99872.66;;;23.14;51.95
24858;BME280;12935;50.782;6.074;2022-08-30T08:59:13;99864.75;;;23.22;51.57
24858;BME280;12935;50.782;6.074;2022-08-30T09:01:39;99861.91;;;23.31;51.51
24858;BME280;12935;50.782;6.074;2022-08-30T09:04:23;99866.22;;;23.41;51.25
24858;BME280;12935;50.782;6.074;2022-08-30T09:06:53;99864.50;;;23.43;51.50
24858;BME280;12935;50.782;6.074;2022-08-30T09:09:24;99869.09;;;23.56;50.91
24858;BME280;12935;50.782;6.074;2022-08-30T09:11:50;99871.94;;;23.70;50.33
24858;BME280;12935;50.782;6.074;2022-08-30T09:14:22;99874.81;;;23.85;49.87
24858;BME280;12935;50.782;6.074;2022-08-30T09:17:04;99866.19;;;23.98;49.91
24858;BME280;12935;50.782;6.074;2022-08-30T09:22:20;99861.16;;;24.26;49.26
24858;BME280;12935;50.782;6.074;2022-08-30T09:24:52;99862.47;;;24.39;48.48
24858;BME280;12935;50.782;6.074;2022-08-30T09:27:30;99863.16;;;24.49;48.31
24858;BME280;12935;50.782;6.074;2022-08-30T09:30:00;99863.53;;;24.57;47.49
24858;BME280;12935;50.782;6.074;2022-08-30T09:32:32;99874.16;;;24.82;47.92
24858;BME280;12935;50.782;6.074;2022-08-30T09:34:59;99862.69;;;24.95;47.14
24858;BME280;12935;50.782;6.074;2022-08-30T09:37:31;99863.72;;;25.12;46.93
24858;BME280;12935;50.782;6.074;2022-08-30T09:39:58;99872.34;;;25.43;46.17
24858;BME280;12935;50.782;6.074;2022-08-30T09:42:26;99874.22;;;25.67;45.44
24858;BME280;12935;50.782;6.074;2022-08-30T09:44:53;99869.13;;;25.85;44.56
24858;BME280;12935;50.782;6.074;2022-08-30T09:47:36;99866.41;;;25.91;44.49
24858;BME280;12935;50.782;6.074;2022-08-30T09:50:17;99859.75;;;25.89;44.50
24858;BME280;12935;50.782;6.074;2022-08-30T09:52:58;99865.97;;;26.18;44.11
24858;BME280;12935;50.782;6.074;2022-08-30T09:55:40;99858.94;;;26.49;42.93
24858;BME280;12935;50.782;6.074;2022-08-30T10:01:34;99858.66;;;26.73;42.32
24858;BME280;12935;50.782;6.074;2022-08-30T10:06:51;99855.63;;;27.08;41.41
24858;BME280;12935;50.782;6.074;2022-08-30T10:09:25;99863.13;;;27.16;41.42
24858;BME280;12935;50.782;6.074;2022-08-30T10:20:25;99851.41;;;28.14;39.17
24858;BME280;12935;50.782;6.074;2022-08-30T10:23:11;99844.50;;;28.15;37.60
24858;BME280;12935;50.782;6.074;2022-08-30T10:28:26;99848.41;;;28.29;37.82
24858;BME280;12935;50.782;6.074;2022-08-30T10:31:07;99840.47;;;28.39;38.14
24858;BME280;12935;50.782;6.074;2022-08-30T10:33:38;99839.75;;;28.60;37.87
24858;BME280;12935;50.782;6.074;2022-08-30T10:36:09;99839.00;;;28.71;37.22
24858;BME280;12935;50.782;6.074;2022-08-30T10:38:38;99846.41;;;28.74;36.34
24858;BME280;12935;50.782;6.074;2022-08-30T10:41:40;99839.03;;;28.88;36.31
24858;BME280;12935;50.782;6.074;2022-08-30T10:44:22;99841.31;;;29.17;34.87
24858;BME280;12935;50.782;6.074;2022-08-30T10:49:43;99838.09;;;29.82;34.06
24858;BME280;12935;50.782;6.074;2022-08-30T10:52:33;99836.41;;;30.15;33.24
24858;BME280;12935;50.782;6.074;2022-08-30T10:55:10;99830.06;;;30.50;33.31
24858;BME280;12935;50.782;6.074;2022-08-30T10:57:38;99837.84;;;30.74;33.12
24858;BME280;12935;50.782;6.074;2022-08-30T11:00:09;99831.41;;;31.03;32.46
24858;BME280;12935;50.782;6.074;2022-08-30T11:03:07;99829.91;;;31.32;32.12
24858;BME280;12935;50.782;6.074;2022-08-30T11:05:54;99826.94;;;31.67;31.30
24858;BME280;12935;50.782;6.074;2022-08-30T11:11:28;99825.00;;;32.19;30.41
24858;BME280;12935;50.782;6.074;2022-08-30T11:14:00;99825.59;;;32.12;29.40
24858;BME280;12935;50.782;6.074;2022-08-30T11:16:53;99819.34;;;32.19;30.11
24858;BME280;12935;50.782;6.074;2022-08-30T11:19:24;99809.09;;;31.78;29.71
24858;BME280;12935;50.782;6.074;2022-08-30T11:21:51;99818.88;;;31.96;29.90
24858;BME280;12935;50.782;6.074;2022-08-30T11:24:19;99819.19;;;31.92;30.04
24858;BME280;12935;50.782;6.074;2022-08-30T11:29:39;99816.28;;;32.35;29.41
24858;BME280;12935;50.782;6.074;2022-08-30T11:37:37;99820.63;;;31.99;29.92
24858;BME280;12935;50.782;6.074;2022-08-30T11:42:35;99807.19;;;32.42;29.98
24858;BME280;12935;50.782;6.074;2022-08-30T11:50:22;99807.28;;;33.01;28.79
24858;BME280;12935;50.782;6.074;2022-08-30T11:53:00;99806.28;;;32.98;28.40
24858;BME280;12935;50.782;6.074;2022-08-30T11:55:40;99809.13;;;33.11;28.23
24858;BME280;12935;50.782;6.074;2022-08-30T12:00:42;99799.50;;;32.56;29.31
24858;BME280;12935;50.782;6.074;2022-08-30T12:10:56;99797.16;;;33.85;28.19
24858;BME280;12935;50.782;6.074;2022-08-30T12:16:12;99803.13;;;34.41;27.10
24858;BME280;12935;50.782;6.074;2022-08-30T12:18:51;99794.47;;;34.68;26.93
24858;BME280;12935;50.782;6.074;2022-08-30T12:24:02;99801.53;;;34.95;26.41
24858;BME280;12935;50.782;6.074;2022-08-30T12:26:32;99785.84;;;34.94;26.15
24858;BME280;12935;50.782;6.074;2022-08-30T12:29:12;99791.91;;;34.98;26.04
24858;BME280;12935;50.782;6.074;2022-08-30T12:31:40;99779.38;;;33.97;26.62
24858;BME280;12935;50.782;6.074;2022-08-30T12:34:06;99782.22;;;34.18;26.65
24858;BME280;12935;50.782;6.074;2022-08-30T12:36:38;99783.31;;;34.28;26.79
24858;BME280;12935;50.782;6.074;2022-08-30T12:39:22;99787.53;;;34.97;26.48
24858;BME280;12935;50.782;6.074;2022-08-30T12:41:48;99776.31;;;35.41;25.49
24858;BME280;12935;50.782;6.074;2022-08-30T12:44:18;99775.72;;;35.14;25.52
24858;BME280;12935;50.782;6.074;2022-08-30T12:46:45;99771.78;;;35.17;26.14
24858;BME280;12935;50.782;6.074;2022-08-30T12:49:15;99772.25;;;35.65;25.41
24858;BME280;12935;50.782;6.074;2022-08-30T12:51:42;99773.50;;;35.92;24.96
24858;BME280;12935;50.782;6.074;2022-08-30T12:54:19;99772.47;;;36.26;24.76
24858;BME280;12935;50.782;6.074;2022-08-30T12:57:01;99765.28;;;36.55;24.87
24858;BME280;12935;50.782;6.074;2022-08-30T12:59:44;99766.06;;;36.48;23.50
24858;BME280;12935;50.782;6.074;2022-08-30T13:02:20;99767.66;;;35.98;24.18
24858;BME280;12935;50.782;6.074;2022-08-30T13:04:48;99760.34;;;37.24;24.10
24858;BME280;12935;50.782;6.074;2022-08-30T13:07:30;99767.97;;;40.76;21.20
24858;BME280;12935;50.782;6.074;2022-08-30T13:10:16;99761.84;;;42.35;19.20
24858;BME280;12935;50.782;6.074;2022-08-30T13:13:01;99754.19;;;42.28;17.72
24858;BME280;12935;50.782;6.074;2022-08-30T13:15:33;99752.09;;;42.91;17.67
24858;BME280;12935;50.782;6.074;2022-08-30T13:18:23;99750.00;;;43.46;17.66
24858;BME280;12935;50.782;6.074;2022-08-30T13:21:08;99748.84;;;44.28;17.30
24858;BME280;12935;50.782;6.074;2022-08-30T13:23:34;99743.84;;;44.17;17.11
24858;BME280;12935;50.782;6.074;2022-08-30T13:25:59;99750.72;;;45.68;15.92
24858;BME280;12935;50.782;6.074;2022-08-30T13:28:24;99738.63;;;45.21;15.94
24858;BME280;12935;50.782;6.074;2022-08-30T13:30:50;99734.94;;;46.08;15.64
24858;BME280;12935;50.782;6.074;2022-08-30T13:33:15;99732.44;;;44.78;16.71
24858;BME280;12935;50.782;6.074;2022-08-30T13:35:40;99738.31;;;44.10;16.63
24858;BME280;12935;50.782;6.074;2022-08-30T13:38:06;99728.78;;;42.34;18.08
24858;BME280;12935;50.782;6.074;2022-08-30T13:40:32;99723.63;;;44.99;16.46
24858;BME280;12935;50.782;6.074;2022-08-30T13:42:57;99720.53;;;45.57;15.98
24858;BME280;12935;50.782;6.074;2022-08-30T13:45:22;99718.16;;;45.79;15.68
24858;BME280;12935;50.782;6.074;2022-08-30T13:47:48;99726.84;;;46.45;15.40
24858;BME280;12935;50.782;6.074;2022-08-30T13:50:14;99727.06;;;45.58;15.63
24858;BME280;12935;50.782;6.074;2022-08-30T13:52:39;99717.97;;;40.23;19.05
24858;BME280;12935;50.782;6.074;2022-08-30T13:55:05;99715.41;;;39.12;20.74
24858;BME280;12935;50.782;6.074;2022-08-30T13:57:32;99712.22;;;40.50;20.02
24858;BME280;12935;50.782;6.074;2022-08-30T13:59:58;99725.38;;;43.00;18.15
24858;BME280;12935;50.782;6.074;2022-08-30T14:02:24;99719.19;;;45.72;16.15
24858;BME280;12935;50.782;6.074;2022-08-30T14:04:49;99711.22;;;46.37;15.11
24858;BME280;12935;50.782;6.074;2022-08-30T14:07:15;99713.84;;;46.19;15.27